Time;durP1;ratioP1;P1;durP2;ratioP2;P2;SDS_P1;SDS_P2;PMS_P1;PMS_P2;Temp;Humidity;BMP_temperature;BMP_pressure;BME280_temperature;BME280_humidity;BME280_pressure;Samples;Min_cycle;Max_cycle;Signal;HPM_P1;HPM_P2
2023/05/15 00:00:24;;;;;;;40.33;27.23;;;;;;;-141.97;100.00;47672.84;4975477;28;20579;-84
2023/05/15 00:02:49;;;;;;;39.73;25.80;;;;;;;-141.97;100.00;47688.22;4975790;28;20168;-84
2023/05/15 00:05:15;;;;;;;37.13;24.60;;;;;;;-141.97;100.00;47701.69;4976197;28;20196;-84
2023/05/15 00:07:40;;;;;;;40.07;26.10;;;;;;;-141.97;100.00;47718.97;4975314;28;20184;-84
2023/05/15 00:10:07;;;;;;;35.93;25.17;;;;;;;-141.97;100.00;47684.38;4975638;28;20555;-83
2023/05/15 00:12:32;;;;;;;37.80;25.63;;;;;;;-141.97;100.00;47636.31;4979487;28;20164;-81
2023/05/15 00:14:58;;;;;;;41.73;26.27;;;;;;;-141.97;100.00;47711.28;4987519;28;20214;-84
2023/05/15 00:17:24;;;;;;;36.63;25.20;;;;;;;-141.97;100.00;47686.31;4976690;28;20255;-84
2023/05/15 00:19:50;;;;;;;40.57;25.57;;;;;;;-141.97;100.00;47613.25;4959451;28;20416;-83
2023/05/15 00:22:15;;;;;;;43.77;26.53;;;;;;;-141.97;100.00;47705.53;4974844;28;20168;-84
2023/05/15 00:24:40;;;;;;;42.40;26.83;;;;;;;-141.97;100.00;47584.44;4975802;28;20228;-83
2023/05/15 00:27:06;;;;;;;39.90;26.23;;;;;;;-141.97;100.00;47638.25;4958781;28;20535;-83
2023/05/15 00:29:31;;;;;;;43.90;27.90;;;;;;;-141.97;100.00;47619.03;4976159;28;20172;-84
2023/05/15 00:31:57;;;;;;;45.47;27.67;;;;;;;-141.97;100.00;47734.34;4974108;28;20180;-84
2023/05/15 00:34:23;;;;;;;44.17;28.47;;;;;;;-141.97;100.00;47692.06;4974992;28;20164;-84
2023/05/15 00:36:49;;;;;;;46.17;28.37;;;;;;;-141.97;100.00;47694.00;4974882;28;20208;-83
2023/05/15 00:39:14;;;;;;;46.57;29.60;;;;;;;-141.97;100.00;47711.28;4975704;28;20215;-83
2023/05/15 00:41:40;;;;;;;45.17;28.73;;;;;;;-141.97;100.00;47692.06;4976407;28;20207;-84
2023/05/15 00:44:06;;;;;;;44.00;28.63;;;;;;;-141.97;100.00;47680.53;4958439;28;20184;-84
2023/05/15 00:46:34;;;;;;;42.17;28.40;;;;;;;-141.97;100.00;47697.84;4986994;28;20164;-84
2023/05/15 00:48:59;;;;;;;45.90;28.97;;;;;;;-141.97;100.00;47699.75;4993832;28;20164;-84
2023/05/15 00:51:25;;;;;;;42.87;27.73;;;;;;;-141.97;100.00;47692.06;4978985;28;20172;-84
2023/05/15 00:53:51;;;;;;;41.47;27.40;;;;;;;-141.97;100.00;47718.97;4975556;28;20176;-84
2023/05/15 00:56:17;;;;;;;40.57;26.33;;;;;;;-141.97;100.00;47715.13;4974366;28;20231;-84
2023/05/15 00:58:45;;;;;;;41.03;26.00;;;;;;;-141.97;100.00;47724.75;4976920;28;20184;-84
2023/05/15 01:01:12;;;;;;;43.50;25.47;;;;;;;-141.97;100.00;47682.47;4976197;28;20605;-83
2023/05/15 01:03:37;;;;;;;40.93;26.30;;;;;;;-141.97;100.00;47707.44;4975286;28;20168;-85
2023/05/15 01:06:03;;;;;;;39.83;26.93;;;;;;;-141.97;100.00;47684.38;4974818;28;20179;-84
2023/05/15 01:08:41;;;;;;;51.73;28.70;;;;;;;-141.97;100.00;47724.75;4955758;28;20203;-83
2023/05/15 01:11:07;;;;;;;42.87;28.23;;;;;;;-141.97;100.00;47743.97;4974513;28;20175;-83
2023/05/15 01:13:33;;;;;;;43.73;27.53;;;;;;;-141.97;100.00;47694.00;4973467;28;20172;-84
2023/05/15 01:15:59;;;;;;;45.60;27.83;;;;;;;-141.97;100.00;47726.66;4974047;28;20211;-84
2023/05/15 01:18:31;;;;;;;40.53;27.13;;;;;;;-141.97;100.00;47659.38;4974761;28;20176;-85
2023/05/15 01:21:15;;;;;;;46.37;28.23;;;;;;;-141.97;100.00;47711.28;4974341;28;20178;-84
2023/05/15 01:24:01;;;;;;;43.00;27.73;;;;;;;-141.97;100.00;47715.13;4974368;28;20172;-85
2023/05/15 01:27:04;;;;;;;47.67;27.77;;;;;;;-141.97;100.00;47688.22;4974113;28;20165;-84
2023/05/15 01:29:35;;;;;;;44.83;27.77;;;;;;;-141.97;100.00;47713.22;4974330;28;20613;-84
2023/05/15 01:32:08;;;;;;;44.63;27.17;;;;;;;-141.97;100.00;47699.75;4974103;28;20164;-84
2023/05/15 01:34:44;;;;;;;46.83;28.13;;;;;;;-141.97;100.00;47713.22;4974412;28;20173;-84
2023/05/15 01:37:13;;;;;;;43.23;27.63;;;;;;;-141.97;100.00;47718.97;4973712;28;20171;-84
2023/05/15 01:39:43;;;;;;;46.10;28.43;;;;;;;-141.97;100.00;47707.44;4974582;28;20210;-84
2023/05/15 01:42:12;;;;;;;43.50;27.63;;;;;;;-141.97;100.00;47694.00;4973712;28;20641;-84
2023/05/15 01:44:45;;;;;;;43.47;28.40;;;;;;;-141.97;100.00;47709.38;4974126;28;20236;-83
2023/05/15 01:47:16;;;;;;;41.77;27.03;;;;;;;-141.97;100.00;47711.28;4974028;28;20251;-84
2023/05/15 01:49:44;;;;;;;42.10;27.27;;;;;;;-141.97;100.00;47722.81;4974075;28;20279;-84
2023/05/15 01:52:15;;;;;;;46.27;28.37;;;;;;;-141.97;100.00;47676.69;4974258;28;20169;-84
2023/05/15 01:54:41;;;;;;;42.57;27.03;;;;;;;-141.97;100.00;47722.81;4973690;28;20282;-84
2023/05/15 01:57:09;;;;;;;45.67;27.80;;;;;;;-141.97;100.00;47707.44;4973838;28;20206;-85
2023/05/15 01:59:35;;;;;;;42.80;26.60;;;;;;;-141.97;100.00;47717.06;4973942;28;20168;-83
2023/05/15 02:02:06;;;;;;;39.23;26.13;;;;;;;-141.97;100.00;47730.50;4973944;28;20207;-83
2023/05/15 02:04:32;;;;;;;43.60;27.60;;;;;;;-141.97;100.00;47665.16;4974085;28;20172;-83
2023/05/15 02:07:00;;;;;;;45.57;28.10;;;;;;;-141.97;100.00;47717.06;4972852;28;20191;-84
2023/05/15 02:09:27;;;;;;;48.70;28.70;;;;;;;-141.97;100.00;47730.50;4974792;28;20179;-83
2023/05/15 02:11:53;;;;;;;51.33;28.73;;;;;;;-141.97;100.00;47715.13;4976019;28;20554;-84
2023/05/15 02:14:19;;;;;;;47.40;28.07;;;;;;;-141.97;100.00;47715.13;4960360;28;20605;-83
2023/05/15 02:16:45;;;;;;;48.73;27.57;;;;;;;-141.97;100.00;47709.38;4976685;28;20195;-84
2023/05/15 02:19:10;;;;;;;44.60;27.00;;;;;;;-141.97;100.00;47690.16;4977229;28;20194;-84
2023/05/15 02:21:36;;;;;;;44.53;27.37;;;;;;;-141.97;100.00;47699.75;4977738;28;20239;-84
2023/05/15 02:24:01;;;;;;;43.57;26.63;;;;;;;-141.97;100.00;47743.97;4977196;28;20196;-84
2023/05/15 02:26:48;;;;;;;45.10;27.80;;;;;;;-141.97;100.00;47715.13;4976725;28;20267;-84
2023/05/15 02:29:28;;;;;;;45.17;27.10;;;;;;;-141.97;100.00;47711.28;4976700;28;20183;-83
2023/05/15 02:32:08;;;;;;;46.57;28.40;;;;;;;-141.97;100.00;47703.59;4976848;28;20167;-83
2023/05/15 02:34:54;;;;;;;47.47;27.67;;;;;;;-141.97;100.00;47730.50;4976982;28;20182;-84
2023/05/15 02:37:26;;;;;;;44.53;27.57;;;;;;;-141.97;100.00;47724.75;4977234;28;20214;-84
2023/05/15 02:39:54;;;;;;;48.10;27.87;;;;;;;-141.97;100.00;47669.00;4976595;28;20177;-85
2023/05/15 02:42:20;;;;;;;51.53;29.23;;;;;;;-141.97;100.00;47688.22;4977172;28;20172;-82
2023/05/15 02:44:47;;;;;;;47.60;29.07;;;;;;;-141.97;100.00;47699.75;4976993;28;20164;-83
2023/05/15 02:47:13;;;;;;;46.40;28.60;;;;;;;-141.97;100.00;47730.50;4977155;28;20227;-84
2023/05/15 02:49:39;;;;;;;46.37;28.43;;;;;;;-141.97;100.00;47728.59;4976619;28;20176;-84
2023/05/15 02:52:05;;;;;;;48.57;29.83;;;;;;;-141.97;100.00;47751.66;4976975;28;20172;-84
2023/05/15 02:54:30;;;;;;;50.50;29.23;;;;;;;-141.97;100.00;47722.81;4976202;28;20236;-83
2023/05/15 02:56:56;;;;;;;50.33;30.97;;;;;;;-141.97;100.00;47722.81;4976986;28;20199;-83
2023/05/15 02:59:21;;;;;;;51.97;30.67;;;;;;;-141.97;100.00;47715.13;4977386;28;20180;-84
2023/05/15 03:01:47;;;;;;;58.47;33.13;;;;;;;-141.97;100.00;47701.69;4976645;28;20172;-83
2023/05/15 03:04:15;;;;;;;52.07;31.60;;;;;;;-141.97;100.00;47688.22;4974687;28;20187;-84
2023/05/15 03:06:41;;;;;;;54.53;32.27;;;;;;;-141.97;100.00;47857.38;4958550;28;20215;-84
2023/05/15 03:09:06;;;;;;;55.07;31.70;;;;;;;-141.97;100.00;47680.53;4981451;28;20172;-85
2023/05/15 03:11:32;;;;;;;54.47;31.73;;;;;;;-141.97;100.00;47726.66;4989542;28;20164;-84
2023/05/15 03:14:01;;;;;;;52.83;31.67;;;;;;;-141.97;100.00;47738.19;4992144;28;20227;-84
2023/05/15 03:16:27;;;;;;;52.70;32.47;;;;;;;-141.97;100.00;47718.97;4983775;28;20207;-84
2023/05/15 03:18:52;;;;;;;53.37;32.27;;;;;;;-141.97;100.00;47743.97;4990473;28;20172;-84
2023/05/15 03:21:18;;;;;;;53.27;31.27;;;;;;;-141.97;100.00;47761.25;4990098;28;20150;-84
2023/05/15 03:23:43;;;;;;;52.43;31.70;;;;;;;-141.97;100.00;47718.97;4986732;28;20161;-83
2023/05/15 03:26:09;;;;;;;47.90;30.40;;;;;;;-141.97;100.00;47765.09;4977759;28;20236;-83
2023/05/15 03:28:34;;;;;;;51.57;31.30;;;;;;;-141.97;100.00;47734.34;4977684;28;20164;-85
2023/05/15 03:31:00;;;;;;;51.67;31.87;;;;;;;-141.97;100.00;47761.25;4977110;28;20168;-83
2023/05/15 03:33:25;;;;;;;50.57;31.10;;;;;;;-141.97;100.00;47745.88;4976187;28;20226;-84
2023/05/15 03:35:51;;;;;;;49.17;31.50;;;;;;;-141.97;100.00;47891.97;4976564;28;20732;-85
2023/05/15 03:38:17;;;;;;;48.90;30.53;;;;;;;-141.97;100.00;47738.19;4976402;28;20163;-84
2023/05/15 03:40:42;;;;;;;54.30;31.97;;;;;;;-141.97;100.00;47738.19;4958802;28;20176;-84
2023/05/15 03:43:08;;;;;;;53.07;31.80;;;;;;;-141.97;100.00;47718.97;4977974;28;20180;-83
2023/05/15 03:45:36;;;;;;;55.50;33.20;;;;;;;-141.97;100.00;47736.28;4980212;28;20172;-84
2023/05/15 03:48:01;;;;;;;52.43;33.13;;;;;;;-141.97;100.00;47680.53;4978190;28;20180;-84
2023/05/15 03:50:27;;;;;;;58.27;35.20;;;;;;;-141.97;100.00;47843.91;4976073;28;20203;-84
2023/05/15 03:52:52;;;;;;;56.90;33.00;;;;;;;-141.97;100.00;47726.66;4976398;28;20179;-84
2023/05/15 03:55:18;;;;;;;56.20;33.33;;;;;;;-141.97;100.00;47738.19;4975847;28;20236;-84
2023/05/15 03:57:43;;;;;;;53.90;32.80;;;;;;;-141.97;100.00;47694.00;4976448;28;20243;-84
2023/05/15 04:00:10;;;;;;;51.57;31.57;;;;;;;-141.97;100.00;47751.66;4975465;28;20168;-84
2023/05/15 04:02:36;;;;;;;55.90;33.23;;;;;;;-141.97;100.00;47688.22;4976396;28;20212;-84
2023/05/15 04:05:03;;;;;;;58.53;33.60;;;;;;;-141.97;100.00;47730.50;4961220;28;20180;-84
2023/05/15 04:07:29;;;;;;;51.63;31.30;;;;;;;-141.97;100.00;47726.66;4971668;28;20306;-84
2023/05/15 04:09:54;;;;;;;52.33;31.57;;;;;;;-141.97;100.00;47728.59;4975546;28;20228;-83
2023/05/15 04:12:21;;;;;;;51.07;30.67;;;;;;;-141.97;100.00;47797.78;4975280;28;20183;-83
2023/05/15 04:14:46;;;;;;;50.63;30.47;;;;;;;-141.97;100.00;47749.72;4958590;28;20218;-83
2023/05/15 04:17:11;;;;;;;51.37;29.80;;;;;;;-141.97;100.00;47695.91;4974863;28;20266;-83
2023/05/15 04:19:39;;;;;;;50.03;29.17;;;;;;;-141.97;100.00;47767.03;4974628;28;20184;-83
2023/05/15 04:22:05;;;;;;;49.10;29.57;;;;;;;-141.97;100.00;47884.28;4975146;28;20203;-82
2023/05/15 04:24:30;;;;;;;47.83;28.87;;;;;;;-141.97;100.00;47738.19;4966605;28;20667;-83
2023/05/15 04:26:56;;;;;;;49.30;28.50;;;;;;;-141.97;100.00;47751.66;4960150;28;20176;-83
2023/05/15 04:29:21;;;;;;;53.27;29.63;;;;;;;-141.97;100.00;47680.53;4994110;28;20182;-84
2023/05/15 04:31:46;;;;;;;49.77;28.70;;;;;;;-141.97;100.00;47749.72;4993831;28;20229;-84
2023/05/15 04:34:12;;;;;;;52.83;29.57;;;;;;;-141.97;100.00;47688.22;4976682;28;20229;-84
2023/05/15 04:36:37;;;;;;;54.07;29.23;;;;;;;-141.97;100.00;47680.53;4994424;28;20693;-83
2023/05/15 04:39:03;;;;;;;54.27;32.90;;;;;;;-141.97;100.00;47717.06;4993927;28;20175;-84
2023/05/15 04:41:29;;;;;;;55.43;34.50;;;;;;;-141.97;100.00;47715.13;4994726;28;20167;-84
2023/05/15 04:43:54;;;;;;;47.57;30.83;;;;;;;-141.97;100.00;47738.19;4994305;28;20214;-84
2023/05/15 04:46:20;;;;;;;47.33;28.90;;;;;;;-141.97;100.00;47893.91;4994950;28;20159;-84
2023/05/15 04:48:45;;;;;;;45.73;28.67;;;;;;;-141.97;100.00;47694.00;4992877;28;20199;-84
2023/05/15 04:51:11;;;;;;;49.20;30.10;;;;;;;-141.97;100.00;47745.88;4994168;28;20190;-84
2023/05/15 04:53:36;;;;;;;50.47;29.07;;;;;;;-141.97;100.00;47722.81;4995123;28;20671;-84
2023/05/15 04:56:02;;;;;;;48.43;27.53;;;;;;;-141.97;100.00;47749.72;4993737;28;20237;-83
2023/05/15 04:58:27;;;;;;;46.73;28.63;;;;;;;-141.97;100.00;47743.97;4994285;28;20226;-82
2023/05/15 05:00:53;;;;;;;44.60;28.40;;;;;;;-141.97;100.00;47626.72;4969057;28;20283;-83
2023/05/15 05:03:18;;;;;;;45.67;29.23;;;;;;;-141.97;100.00;47718.97;4957300;28;20267;-84
2023/05/15 05:05:43;;;;;;;47.03;30.33;;;;;;;-141.97;100.00;47868.91;4966078;28;20255;-83
2023/05/15 05:08:09;;;;;;;44.93;28.03;;;;;;;-141.97;100.00;47851.59;4975388;28;20176;-83
2023/05/15 05:10:34;;;;;;;45.43;28.83;;;;;;;-141.97;100.00;47730.50;4974455;28;20172;-83
2023/05/15 05:12:59;;;;;;;45.20;27.53;;;;;;;-141.97;100.00;47722.81;4976545;28;20188;-84
2023/05/15 05:15:25;;;;;;;45.57;26.17;;;;;;;-141.97;100.00;47665.16;4975454;28;20235;-83
2023/05/15 05:17:51;;;;;;;41.13;26.33;;;;;;;-141.97;100.00;47732.44;4974949;28;20167;-82
2023/05/15 05:20:17;;;;;;;43.67;26.13;;;;;;;-141.97;100.00;47711.28;4975072;28;20200;-83
2023/05/15 05:22:42;;;;;;;43.43;26.27;;;;;;;-141.97;100.00;47738.19;4974949;28;20183;-84
2023/05/15 05:25:08;;;;;;;40.63;25.90;;;;;;;-141.97;100.00;47728.59;4974510;28;20192;-83
2023/05/15 05:27:33;;;;;;;45.47;27.40;;;;;;;-141.97;100.00;47711.28;4975224;28;20234;-83
2023/05/15 05:29:59;;;;;;;43.50;26.70;;;;;;;-141.97;100.00;47799.72;4975242;28;20176;-83
2023/05/15 05:32:25;;;;;;;44.70;28.10;;;;;;;-141.97;100.00;47711.28;4975570;28;20168;-82
2023/05/15 05:34:50;;;;;;;46.80;27.73;;;;;;;-141.97;100.00;47740.13;4974692;28;20165;-83
2023/05/15 05:37:15;;;;;;;43.27;25.63;;;;;;;-141.97;100.00;47722.81;4974301;28;20204;-83
2023/05/15 05:39:41;;;;;;;41.13;23.37;;;;;;;-141.97;100.00;47722.81;4974561;28;20251;-82
2023/05/15 05:42:06;;;;;;;41.37;24.13;;;;;;;-141.97;100.00;47697.84;4974010;28;20243;-83
2023/05/15 05:44:33;;;;;;;41.43;26.10;;;;;;;-141.97;100.00;47718.97;4975458;28;20184;-82
2023/05/15 05:46:58;;;;;;;63.40;41.30;;;;;;;-141.97;100.00;47715.13;4960825;28;20219;-83
2023/05/15 05:49:24;;;;;;;59.50;35.67;;;;;;;-141.97;100.00;47824.69;4977909;28;20183;-82
2023/05/15 05:51:49;;;;;;;36.87;23.17;;;;;;;-141.97;100.00;47686.31;4977853;28;20219;-82
2023/05/15 05:54:16;;;;;;;38.73;24.60;;;;;;;-141.97;100.00;47703.59;4977897;28;20547;-82
2023/05/15 05:56:42;;;;;;;40.80;24.63;;;;;;;-141.97;100.00;47692.06;4977840;28;20257;-83
2023/05/15 05:59:08;;;;;;;37.90;24.37;;;;;;;-141.97;100.00;47834.31;4977542;28;20203;-83
2023/05/15 06:01:33;;;;;;;42.90;25.33;;;;;;;-141.97;100.00;47772.78;4964841;28;20536;-84
2023/05/15 06:03:58;;;;;;;38.53;23.93;;;;;;;-141.97;100.00;47622.88;4962204;29;20684;-83
2023/05/15 06:06:24;;;;;;;36.37;24.20;;;;;;;-141.97;100.00;47895.81;4943928;29;20224;-82
2023/05/15 06:08:49;;;;;;;42.10;25.97;;;;;;;-141.97;100.00;47711.28;4961000;29;20193;-82
2023/05/15 06:11:15;;;;;;;45.43;26.57;;;;;;;-141.97;100.00;47742.03;4984829;28;20194;-83
2023/05/15 06:13:40;;;;;;;44.13;26.27;;;;;;;-141.97;100.00;47718.97;4996184;28;20230;-82
2023/05/15 06:16:06;;;;;;;40.80;24.93;;;;;;;-141.97;100.00;47720.91;4995959;28;20233;-83
2023/05/15 06:18:31;;;;;;;40.03;25.20;;;;;;;-141.97;100.00;47730.50;4996108;28;20179;-83
2023/05/15 06:20:59;;;;;;;42.07;24.93;;;;;;;-141.97;100.00;47701.69;4977628;28;20719;-83
2023/05/15 06:23:25;;;;;;;40.80;25.23;;;;;;;-141.97;100.00;47715.13;4996106;28;20230;-84
2023/05/15 06:25:50;;;;;;;42.93;25.73;;;;;;;-141.97;100.00;47695.91;4997122;28;20605;-83
2023/05/15 06:28:16;;;;;;;40.97;24.07;;;;;;;-141.97;100.00;47709.38;4983605;28;20271;-82
2023/05/15 06:30:41;;;;;;;36.00;23.57;;;;;;;-141.97;100.00;47653.63;4976939;28;20180;-83
2023/05/15 06:33:07;;;;;;;39.80;24.20;;;;;;;-141.97;100.00;47715.13;4977942;28;20535;-84
2023/05/15 06:35:32;;;;;;;37.90;24.40;;;;;;;-141.97;100.00;47688.22;4976900;28;20196;-83
2023/05/15 06:37:57;;;;;;;37.43;24.17;;;;;;;-141.97;100.00;47751.66;4976514;28;20172;-82
2023/05/15 06:40:23;;;;;;;40.93;24.40;;;;;;;-141.97;100.00;47692.06;4976671;28;20180;-83
2023/05/15 06:42:48;;;;;;;39.37;25.50;;;;;;;-141.97;100.00;47761.25;4976751;28;20184;-83
2023/05/15 06:45:14;;;;;;;40.63;25.53;;;;;;;-141.97;100.00;47680.53;4958755;28;20176;-83
2023/05/15 06:47:40;;;;;;;44.13;24.53;;;;;;;-141.97;100.00;47669.00;4976865;28;20694;-83
2023/05/15 06:50:05;;;;;;;36.87;23.70;;;;;;;-141.97;100.00;47669.00;4952226;28;20597;-83
2023/05/15 06:52:31;;;;;;;40.57;25.63;;;;;;;-141.97;100.00;47711.28;4953079;28;20200;-83
2023/05/15 06:54:56;;;;;;;42.07;26.83;;;;;;;-141.97;100.00;47649.78;4976975;28;20287;-82
2023/05/15 06:57:22;;;;;;;46.13;28.87;;;;;;;-141.97;100.00;47695.91;4974147;28;20184;-83
2023/05/15 06:59:47;;;;;;;44.43;29.73;;;;;;;-141.97;100.00;47711.28;4975906;28;20211;-84
2023/05/15 07:02:12;;;;;;;50.60;30.03;;;;;;;-141.97;100.00;47692.06;4972454;28;20192;-84
2023/05/15 07:04:38;;;;;;;40.50;26.30;;;;;;;-141.97;100.00;47672.84;4976010;28;20223;-83
2023/05/15 07:07:03;;;;;;;39.37;25.23;;;;;;;-141.97;100.00;47715.13;4965071;28;20603;-83
2023/05/15 07:09:29;;;;;;;37.70;23.63;;;;;;;-141.97;100.00;47726.66;4975607;28;20180;-83
2023/05/15 07:11:55;;;;;;;38.13;23.37;;;;;;;-141.97;100.00;47674.78;4974708;28;20258;-82
2023/05/15 07:14:20;;;;;;;40.37;25.57;;;;;;;-141.97;100.00;47713.22;4958019;28;20187;-83
2023/05/15 07:16:46;;;;;;;35.63;23.40;;;;;;;-141.97;100.00;47607.50;4975328;28;20204;-83
2023/05/15 07:19:12;;;;;;;36.57;22.87;;;;;;;-141.97;100.00;47705.53;4976114;28;20254;-83
2023/05/15 07:21:38;;;;;;;33.47;23.43;;;;;;;-141.97;100.00;47695.91;4975632;28;20172;-83
2023/05/15 07:24:04;;;;;;;31.83;21.67;;;;;;;-141.97;100.00;47724.75;4975216;28;20211;-83
2023/05/15 07:26:31;;;;;;;32.17;21.33;;;;;;;-141.97;100.00;47699.75;4974558;28;20203;-83
2023/05/15 07:28:57;;;;;;;29.87;20.57;;;;;;;-141.97;100.00;47718.97;4975939;28;20169;-83
2023/05/15 07:31:22;;;;;;;30.53;19.90;;;;;;;-141.97;100.00;47682.47;4974119;28;20203;-83
2023/05/15 07:33:47;;;;;;;30.27;20.40;;;;;;;-141.97;100.00;47836.22;4975317;28;20186;-83
2023/05/15 07:36:13;;;;;;;33.17;20.80;;;;;;;-141.97;100.00;47680.53;4975157;28;20199;-83
2023/05/15 07:38:38;;;;;;;30.13;20.30;;;;;;;-141.97;100.00;47699.75;4976335;28;20168;-83
2023/05/15 07:41:04;;;;;;;27.03;19.60;;;;;;;-141.97;100.00;47628.63;4975476;28;20181;-83
2023/05/15 07:43:29;;;;;;;28.67;17.73;;;;;;;-141.97;100.00;47669.00;4977405;28;20179;-83
2023/05/15 07:45:55;;;;;;;26.93;18.13;;;;;;;-141.97;100.00;47670.91;4976206;28;20610;-84
2023/05/15 07:48:20;;;;;;;25.33;18.17;;;;;;;-141.97;100.00;47709.38;4975888;28;20168;-82
2023/05/15 07:50:46;;;;;;;24.63;16.23;;;;;;;-141.97;100.00;47695.91;4974249;28;20187;-82
2023/05/15 07:53:15;;;;;;;20.33;15.00;;;;;;;-141.97;100.00;47695.91;4973073;28;20176;-82
2023/05/15 07:55:42;;;;;;;22.10;15.27;;;;;;;-141.97;100.00;47649.78;4962508;28;20240;-82
2023/05/15 07:58:08;;;;;;;22.87;15.83;;;;;;;-141.97;100.00;47695.91;4938176;29;20263;-84
2023/05/15 08:00:34;;;;;;;31.93;20.10;;;;;;;-141.97;100.00;47718.97;4954885;28;20253;-84
2023/05/15 08:02:59;;;;;;;24.73;18.43;;;;;;;-141.97;100.00;47645.94;4937634;29;20188;-83
2023/05/15 08:05:25;;;;;;;24.23;17.70;;;;;;;-141.97;100.00;47686.31;4937438;29;20199;-83
2023/05/15 08:07:50;;;;;;;25.07;16.83;;;;;;;-141.97;100.00;47676.69;4944606;28;20240;-84
2023/05/15 08:10:16;;;;;;;27.23;17.90;;;;;;;-141.97;100.00;47667.06;4953733;29;20271;-85
2023/05/15 08:12:45;;;;;;;25.93;17.97;;;;;;;-141.97;100.00;47588.28;4954643;29;20559;-83
2023/05/15 08:15:11;;;;;;;24.50;18.00;;;;;;;-141.97;100.00;47638.25;4936189;29;20189;-83
2023/05/15 08:17:36;;;;;;;28.00;20.43;;;;;;;-141.97;100.00;47836.22;4954658;29;20187;-83
2023/05/15 08:20:03;;;;;;;30.23;20.90;;;;;;;-141.97;100.00;47726.66;4954557;29;20220;-82
2023/05/15 08:22:29;;;;;;;31.63;21.53;;;;;;;-141.97;100.00;47768.94;4954445;29;20184;-85
2023/05/15 08:24:54;;;;;;;33.70;23.17;;;;;;;-141.97;100.00;47688.22;4955674;29;20629;-83
2023/05/15 08:27:20;;;;;;;30.53;21.33;;;;;;;-141.97;100.00;47682.47;4954658;29;20905;-83
2023/05/15 08:29:46;;;;;;;29.00;21.63;;;;;;;-141.97;100.00;47634.41;4954905;29;20256;-83
2023/05/15 08:32:11;;;;;;;28.77;22.03;;;;;;;-141.97;100.00;47705.53;4953888;29;20223;-83
2023/05/15 08:34:37;;;;;;;30.53;21.83;;;;;;;-141.97;100.00;47688.22;4937615;29;20655;-82
2023/05/15 08:37:03;;;;;;;33.63;22.33;;;;;;;-141.97;100.00;47686.31;4954236;29;20208;-84
2023/05/15 08:39:28;;;;;;;31.33;23.10;;;;;;;-141.97;100.00;47634.41;4954598;29;20179;-83
2023/05/15 08:42:07;;;;;;;31.13;23.53;;;;;;;-141.97;100.00;47705.53;4954171;29;20214;-83
2023/05/15 08:44:33;;;;;;;33.63;21.97;;;;;;;-141.97;100.00;47711.28;4954285;29;20267;-83
2023/05/15 08:46:59;;;;;;;27.70;20.53;;;;;;;-141.97;100.00;47709.38;4954014;29;20571;-83
2023/05/15 08:49:49;;;;;;;31.03;21.20;;;;;;;-141.97;100.00;47718.97;4955051;29;20285;-85
2023/05/15 08:52:15;;;;;;;30.13;21.23;;;;;;;-141.97;100.00;47726.66;4952702;29;20187;-84
2023/05/15 08:54:41;;;;;;;27.87;20.87;;;;;;;-141.97;100.00;47686.31;4958989;28;20228;-83
2023/05/15 08:57:08;;;;;;;30.37;21.63;;;;;;;-141.97;100.00;47680.53;4974256;28;20203;-82
2023/05/15 08:59:33;;;;;;;33.03;23.90;;;;;;;-141.97;100.00;47640.16;4973587;28;20200;-84
2023/05/15 09:01:59;;;;;;;32.33;22.50;;;;;;;-141.97;100.00;47707.44;4968203;28;20715;-83
2023/05/15 09:04:24;;;;;;;31.90;24.50;;;;;;;-141.97;100.00;47626.72;5000654;28;20171;-83
2023/05/15 09:06:51;;;;;;;39.10;26.07;;;;;;;-141.97;100.00;47622.88;5000506;28;20223;-85
2023/05/15 09:09:17;;;;;;;34.67;23.80;;;;;;;-141.97;100.00;47707.44;5013431;28;20206;-83
2023/05/15 09:11:44;;;;;;;31.47;22.97;;;;;;;-141.97;100.00;47676.69;4994500;28;20239;-82
2023/05/15 09:14:10;;;;;;;26.83;20.33;;;;;;;-141.97;100.00;47645.94;4982306;28;20180;-84
2023/05/15 09:16:36;;;;;;;28.53;19.93;;;;;;;-141.97;100.00;47584.44;4974081;28;20274;-83
2023/05/15 09:19:02;;;;;;;27.77;20.83;;;;;;;-141.97;100.00;47830.47;4956370;28;20172;-84
2023/05/15 09:21:30;;;;;;;27.03;19.27;;;;;;;-141.97;100.00;47694.00;4975723;28;20171;-85
2023/05/15 09:24:22;;;;;;;30.17;20.37;;;;;;;-141.97;100.00;47697.84;4977119;28;20285;-83
2023/05/15 09:27:01;;;;;;;28.67;20.90;;;;;;;-141.97;100.00;47684.38;4945719;28;20701;-85
2023/05/15 09:29:28;;;;;;;30.93;20.73;;;;;;;-141.97;100.00;47686.31;4978599;28;20157;-83
2023/05/15 09:31:54;;;;;;;40.80;27.13;;;;;;;-141.97;100.00;47694.00;4990372;28;20176;-83
2023/05/15 09:34:29;;;;;;;38.17;25.23;;;;;;;-141.97;100.00;47672.84;4991159;28;20159;-83
2023/05/15 09:36:55;;;;;;;34.67;23.17;;;;;;;-141.97;100.00;47730.50;4975843;28;20234;-81
2023/05/15 09:39:23;;;;;;;31.30;23.20;;;;;;;-141.97;100.00;47834.31;4985681;28;20629;-83
2023/05/15 09:41:48;;;;;;;40.77;26.87;;;;;;;-141.97;100.00;47818.94;4980778;28;20787;-83
2023/05/15 09:44:19;;;;;;;36.77;26.37;;;;;;;-141.97;100.00;47703.59;4981176;28;20168;-84
2023/05/15 09:46:45;;;;;;;41.40;28.93;;;;;;;-141.97;100.00;47638.25;4979424;28;20160;-83
2023/05/15 09:49:11;;;;;;;39.70;26.03;;;;;;;-141.97;100.00;47728.59;4962390;28;20180;-83
2023/05/15 09:51:37;;;;;;;39.23;25.80;;;;;;;-141.97;100.00;47722.81;4978361;28;20175;-83
2023/05/15 09:54:02;;;;;;;38.10;24.03;;;;;;;-141.97;100.00;47676.69;4978149;28;20176;-84
2023/05/15 09:56:28;;;;;;;36.17;25.13;;;;;;;-141.97;100.00;47695.91;4978119;28;20228;-84
2023/05/15 09:58:55;;;;;;;32.77;23.30;;;;;;;-141.97;100.00;47695.91;4977769;28;20239;-84
2023/05/15 10:01:25;;;;;;;35.07;23.60;;;;;;;-141.97;100.00;47684.38;4957149;28;20655;-84
2023/05/15 10:04:00;;;;;;;38.90;24.80;;;;;;;-141.97;100.00;47718.97;4976484;28;20171;-84
2023/05/15 10:06:26;;;;;;;36.90;23.83;;;;;;;-141.97;100.00;47718.97;4949624;28;20672;-84
2023/05/15 10:08:53;;;;;;;36.30;23.73;;;;;;;-141.97;100.00;47695.91;4977308;28;20179;-84
2023/05/15 10:11:19;;;;;;;45.37;27.60;;;;;;;-141.97;100.00;47703.59;4959663;28;20183;-84
2023/05/15 10:13:46;;;;;;;46.53;28.23;;;;;;;-141.97;100.00;47657.47;4976739;28;20630;-84
2023/05/15 10:16:13;;;;;;;44.97;26.83;;;;;;;-141.97;100.00;47740.13;4977262;28;20254;-84
2023/05/15 10:18:39;;;;;;;37.07;24.73;;;;;;;-141.97;100.00;47632.47;4977988;28;20636;-83
2023/05/15 10:21:08;;;;;;;34.60;23.93;;;;;;;-141.97;100.00;47688.22;4977680;28;20172;-84
2023/05/15 10:23:35;;;;;;;36.03;23.77;;;;;;;-141.97;100.00;47849.69;4958580;28;20184;-83
2023/05/15 10:26:13;;;;;;;46.30;27.27;;;;;;;-141.97;100.00;47638.25;4976299;28;20172;-83
2023/05/15 10:28:39;;;;;;;33.20;23.63;;;;;;;-141.97;100.00;47849.69;4976137;28;20176;-83
2023/05/15 10:31:05;;;;;;;35.60;23.70;;;;;;;-141.97;100.00;47688.22;4976193;28;20222;-83
2023/05/15 10:33:32;;;;;;;33.97;23.47;;;;;;;-141.97;100.00;47682.47;4974717;28;20263;-83
2023/05/15 10:35:58;;;;;;;41.13;28.27;;;;;;;-141.97;100.00;47780.47;4976678;28;20283;-84
2023/05/15 10:38:24;;;;;;;33.57;23.83;;;;;;;-141.97;100.00;47665.16;4976667;28;20270;-83
2023/05/15 10:40:51;;;;;;;36.17;25.60;;;;;;;-141.97;100.00;47713.22;4976231;28;20170;-83
2023/05/15 10:43:19;;;;;;;35.93;23.93;;;;;;;-141.97;100.00;47699.75;4975464;28;20172;-84
2023/05/15 10:45:46;;;;;;;32.60;23.13;;;;;;;-141.97;100.00;47849.69;4958820;28;20223;-83
2023/05/15 10:48:13;;;;;;;40.83;26.70;;;;;;;-141.97;100.00;47834.31;4975787;28;20176;-84
2023/05/15 10:50:38;;;;;;;34.40;23.77;;;;;;;-141.97;100.00;47644.00;4959631;28;20251;-83
2023/05/15 10:53:04;;;;;;;31.77;23.43;;;;;;;-141.97;100.00;47642.09;4975282;28;20608;-83